Time;durP1;ratioP1;P1;durP2;ratioP2;P2;SDS_P1;SDS_P2;PMS_P1;PMS_P2;Temp;Humidity;BMP_temperature;BMP_pressure;BME280_temperature;BME280_humidity;BME280_pressure;Samples;Min_cycle;Max_cycle;Signal;HPM_P1;HPM_P2
2022/03/28 07:02:52;;;;;;;;;21.00;20.00;;;;;17.63;48.71;102039.59;5116471;27;45512;-79
2022/03/28 07:05:17;;;;;;;;;25.50;22.50;;;;;17.77;48.67;102036.91;5109007;27;54765;-77
2022/03/28 07:07:45;;;;;;;;;22.75;22.00;;;;;18.04;48.69;102037.91;5107550;27;45349;-79
2022/03/28 07:10:12;;;;;;;;;20.50;18.50;;;;;18.29;48.03;102039.00;5105532;27;45529;-77
2022/03/28 07:12:38;;;;;;;;;34.00;31.25;;;;;18.50;45.73;102028.63;5108988;27;45432;-84
2022/03/28 07:15:05;;;;;;;;;36.50;30.00;;;;;18.74;45.90;102029.75;5101508;27;45485;-83
2022/03/28 07:17:31;;;;;;;;;34.00;29.00;;;;;18.98;45.65;102034.41;5107298;27;45641;-84
2022/03/28 07:19:57;;;;;;;;;27.00;25.50;;;;;19.20;45.10;102034.66;5094866;27;45566;-84
2022/03/28 07:22:22;;;;;;;;;24.00;23.00;;;;;19.45;45.23;102049.06;5103115;27;45474;-84
2022/03/28 07:24:47;;;;;;;;;29.50;28.50;;;;;19.62;44.91;102037.09;5105577;27;58572;-84
2022/03/28 07:27:14;;;;;;;;;27.25;26.00;;;;;19.83;45.08;102033.78;5096679;27;45371;-79
2022/03/28 07:29:43;;;;;;;;;29.00;20.50;;;;;20.04;44.87;102025.16;5103036;27;45758;-82
2022/03/28 07:32:08;;;;;;;;;22.00;21.75;;;;;20.22;45.34;102019.34;5104300;27;45491;-83
2022/03/28 07:34:34;;;;;;;;;23.50;20.50;;;;;20.39;45.00;102021.63;5102448;27;45439;-80
2022/03/28 07:37:02;;;;;;;;;25.75;22.50;;;;;20.49;44.49;102015.53;5105897;27;45571;-85
2022/03/28 07:39:29;;;;;;;;;28.50;25.00;;;;;20.63;43.88;102007.25;5096462;27;45441;-76
2022/03/28 07:41:54;;;;;;;;;30.75;23.75;;;;;20.83;43.81;102021.03;5103769;27;45518;-76
2022/03/28 07:44:20;;;;;;;;;24.75;21.00;;;;;20.94;43.69;102006.72;5105091;27;45518;-76
2022/03/28 07:46:46;;;;;;;;;27.00;23.00;;;;;21.09;43.60;102014.59;5106417;27;45681;-76
2022/03/28 07:49:12;;;;;;;;;28.00;21.25;;;;;21.21;43.18;102013.59;5095245;27;45411;-76
2022/03/28 07:51:38;;;;;;;;;24.50;20.75;;;;;21.32;43.69;102010.06;5101200;27;46416;-76
2022/03/28 07:54:04;;;;;;;;;24.75;22.25;;;;;21.48;43.37;102014.22;5103364;27;45760;-75
2022/03/28 07:56:31;;;;;;;;;24.50;21.00;;;;;21.57;42.95;102013.47;5096617;27;45884;-75
2022/03/28 07:58:57;;;;;;;;;27.25;22.25;;;;;21.69;43.15;102015.19;5102226;27;46585;-75
2022/03/28 08:01:22;;;;;;;;;25.00;22.75;;;;;21.79;42.58;102019.88;5107657;27;45408;-75
2022/03/28 08:03:48;;;;;;;;;22.25;20.75;;;;;21.71;42.76;101988.91;5098908;27;49898;-75
2022/03/28 08:06:13;;;;;;;;;25.25;21.75;;;;;21.92;42.95;102003.50;5098633;27;45680;-75
2022/03/28 08:08:38;;;;;;;;;26.25;19.00;;;;;22.03;42.47;102011.56;5094983;27;45847;-76
2022/03/28 08:11:07;;;;;;;;;25.50;23.25;;;;;22.09;42.82;102016.47;5102566;27;46083;-75
2022/03/28 08:13:36;;;;;;;;;31.00;24.75;;;;;22.18;42.27;102008.56;5089558;27;45726;-75
2022/03/28 08:16:03;;;;;;;;;24.00;22.25;;;;;22.22;42.59;102001.91;5092187;27;45453;-75
2022/03/28 08:18:29;;;;;;;;;29.75;22.75;;;;;22.31;42.28;102008.41;5091329;27;45468;-75
2022/03/28 08:20:55;;;;;;;;;24.50;20.00;;;;;22.38;42.29;102007.75;5083921;27;47303;-75
2022/03/28 08:23:20;;;;;;;;;22.50;19.00;;;;;22.44;41.96;102002.81;5082435;27;45528;-75
2022/03/28 08:25:47;;;;;;;;;20.75;19.25;;;;;22.50;41.76;102016.69;5088183;27;45829;-75
2022/03/28 08:28:13;;;;;;;;;22.25;19.75;;;;;22.51;42.17;102004.84;5092714;27;45682;-75
2022/03/28 08:30:38;;;;;;;;;28.00;20.75;;;;;22.60;41.56;102003.22;5089519;27;45650;-75
2022/03/28 08:33:03;;;;;;;;;21.50;17.00;;;;;22.65;42.10;102010.97;5088946;27;45660;-75
2022/03/28 08:35:29;;;;;;;;;24.75;20.25;;;;;22.70;41.84;102007.84;5088899;27;45427;-75
2022/03/28 08:37:54;;;;;;;;;25.00;21.75;;;;;22.74;41.93;102009.31;5084110;27;45540;-75
2022/03/28 08:40:20;;;;;;;;;21.00;21.00;;;;;22.77;41.69;102004.47;5094851;27;45499;-74
2022/03/28 08:42:47;;;;;;;;;22.75;19.50;;;;;22.82;41.65;102001.41;5086808;27;45402;-75
2022/03/28 08:45:14;;;;;;;;;22.00;20.00;;;;;22.84;41.47;101999.41;5088441;27;45513;-75
2022/03/28 08:47:42;;;;;;;;;24.25;20.00;;;;;22.88;41.64;101999.97;5081527;27;45501;-77
2022/03/28 08:50:10;;;;;;;;;30.00;25.75;;;;;22.79;41.73;101971.00;5089377;27;46516;-78
2022/03/28 08:52:36;;;;;;;;;19.25;19.25;;;;;22.89;41.15;101989.03;5086908;27;45534;-79
2022/03/28 08:55:01;;;;;;;;;20.75;20.25;;;;;22.95;41.06;101994.91;5089592;27;45582;-79
2022/03/28 08:57:26;;;;;;;;;21.25;19.00;;;;;22.95;41.80;101993.06;5090344;27;45361;-79
2022/03/28 08:59:52;;;;;;;;;23.00;16.67;;;;;22.97;41.11;101992.94;5105220;27;46282;-76
2022/03/28 09:02:42;;;;;;;;;21.00;20.75;;;;;23.01;41.70;101995.22;5085580;27;45361;-77
2022/03/28 09:05:09;;;;;;;;;20.67;18.33;;;;;22.97;41.40;101982.94;5086730;27;45521;-77
2022/03/28 09:07:34;;;;;;;;;18.33;14.00;;;;;23.06;41.20;101986.69;5093216;27;45536;-75
2022/03/28 09:10:05;;;;;;;;;21.25;16.75;;;;;23.10;41.18;101993.53;5088944;27;46144;-74
2022/03/28 09:12:30;;;;;;;;;19.67;19.33;;;;;23.14;41.05;101991.44;5081923;27;46544;-75
2022/03/28 09:14:58;;;;;;;;;20.00;18.50;;;;;23.16;41.59;101984.88;5087901;27;45496;-74
2022/03/28 09:17:25;;;;;;;;;25.25;17.75;;;;;23.20;41.13;101996.31;5087061;27;45614;-75
2022/03/28 09:19:51;;;;;;;;;19.25;19.25;;;;;23.24;41.16;101989.63;5089449;27;46280;-76
2022/03/28 09:22:19;;;;;;;;;23.00;18.25;;;;;23.28;41.30;101991.06;5095633;27;45607;-75
2022/03/28 09:24:46;;;;;;;;;18.25;18.25;;;;;23.30;41.10;101989.06;5083342;27;45488;-76
2022/03/28 09:27:15;;;;;;;;;18.67;16.67;;;;;23.34;41.41;101986.13;5087003;27;45434;-76
2022/03/28 09:30:03;;;;;;;;;15.00;15.00;;;;;23.38;41.15;101984.88;5086631;27;46288;-76
2022/03/28 09:32:34;;;;;;;;;18.25;17.50;;;;;23.41;41.15;101992.69;5087810;27;45474;-75
2022/03/28 09:35:06;;;;;;;;;19.25;17.00;;;;;23.43;40.85;101990.72;5082884;27;45454;-74
2022/03/28 09:37:58;;;;;;;;;20.00;19.25;;;;;23.46;40.69;101984.16;5089797;27;45310;-74
2022/03/28 09:40:32;;;;;;;;;16.67;16.33;;;;;23.49;40.87;101979.31;5091999;27;46382;-76
2022/03/28 09:42:58;;;;;;;;;21.75;18.00;;;;;23.50;40.80;101981.03;5089319;27;45526;-80
2022/03/28 09:45:27;;;;;;;;;19.75;18.50;;;;;23.48;39.65;101968.63;5089254;27;45417;-82
2022/03/28 09:48:01;;;;;;;;;17.67;17.33;;;;;23.47;40.09;101967.78;5089818;27;45521;-84
2022/03/28 09:50:32;;;;;;;;;19.75;17.25;;;;;23.43;39.74;101964.47;5089363;27;46012;-80
2022/03/28 09:53:18;;;;;;;;;24.00;19.67;;;;;23.38;39.52;101966.75;5091686;27;45483;-81
2022/03/28 09:55:53;;;;;;;;;19.33;18.00;;;;;23.32;39.58;101952.84;5090039;27;45363;-78
2022/03/28 09:58:39;;;;;;;;;21.33;19.67;;;;;23.30;39.35;101953.84;5093723;27;45543;-79
2022/03/28 10:01:07;;;;;;;;;19.00;18.33;;;;;23.28;39.29;101944.16;5091035;27;45966;-82
2022/03/28 10:03:36;;;;;;;;;18.00;18.00;;;;;23.26;39.34;101936.16;5089866;27;46193;-75
2022/03/28 10:06:04;;;;;;;;;22.00;20.00;;;;;23.22;39.24;101945.53;5089732;27;45500;-86
2022/03/28 10:08:30;;;;;;;;;19.33;17.67;;;;;23.17;39.52;101924.31;5093071;27;45526;-83
2022/03/28 10:10:58;;;;;;;;;23.00;19.00;;;;;23.23;39.66;101938.28;5084990;27;47293;-80
2022/03/28 10:13:23;;;;;;;;;21.50;20.00;;;;;23.23;39.20;101927.47;5093182;27;45499;-81
2022/03/28 10:15:50;;;;;;;;;20.67;20.67;;;;;23.20;39.38;101923.19;5091511;27;45437;-79
2022/03/28 10:18:15;;;;;;;;;17.33;15.67;;;;;23.24;39.00;101931.88;5083964;27;45430;-77
2022/03/28 10:20:44;;;;;;;;;22.75;20.00;;;;;23.25;39.28;101922.75;5088658;27;45921;-77
2022/03/28 10:23:14;;;;;;;;;25.50;22.75;;;;;23.22;39.25;101925.75;5078981;27;45778;-74
2022/03/28 10:25:41;;;;;;;;;26.00;24.50;;;;;23.26;38.89;101913.66;5087932;27;45516;-76
2022/03/28 10:28:08;;;;;;;;;18.67;18.67;;;;;23.21;38.82;101907.78;5092315;27;45435;-74
2022/03/28 10:30:34;;;;;;;;;23.00;21.00;;;;;23.24;38.62;101905.66;5092692;27;45496;-76
2022/03/28 10:33:18;;;;;;;;;22.50;21.00;;;;;23.25;39.09;101906.50;5089632;27;45477;-73
2022/03/28 10:36:06;;;;;;;;;21.50;21.00;;;;;23.21;38.95;101896.97;5093444;27;45392;-73
2022/03/28 10:38:32;;;;;;;;;23.75;20.75;;;;;23.25;38.67;101903.78;5088767;27;45381;-74
2022/03/28 10:40:58;;;;;;;;;19.00;17.00;;;;;23.25;38.57;101899.25;5091977;27;46286;-73
2022/03/28 10:43:27;;;;;;;;;23.50;21.00;;;;;23.26;38.63;101891.97;5093153;27;45501;-73
2022/03/28 10:45:56;;;;;;;;;19.00;17.50;;;;;23.25;38.91;101880.28;5091994;27;45689;-73
2022/03/28 10:48:53;;;;;;;;;22.25;21.25;;;;;23.26;38.56;101875.72;5092252;27;45477;-77
2022/03/28 10:51:24;;;;;;;;;21.00;17.67;;;;;23.26;38.13;101868.44;5087967;27;48127;-76
2022/03/28 10:53:56;;;;;;;;;19.50;16.00;;;;;23.27;38.44;101866.59;5086412;27;45399;-73
2022/03/28 10:56:30;;;;;;;;;22.50;18.25;;;;;23.25;38.88;101866.72;5084731;27;46976;-76
2022/03/28 10:58:59;;;;;;;;;22.25;20.75;;;;;23.26;38.90;101863.03;5091844;27;45591;-75
2022/03/28 11:01:25;;;;;;;;;20.33;18.67;;;;;23.28;38.38;101857.47;5089265;27;48312;-75
2022/03/28 11:03:59;;;;;;;;;20.67;20.00;;;;;23.30;38.38;101858.22;5091527;27;45467;-76
2022/03/28 11:06:45;;;;;;;;;20.25;19.75;;;;;23.29;38.74;101849.22;5089409;27;45647;-76
2022/03/28 11:09:12;;;;;;;;;25.00;20.33;;;;;23.27;38.54;101839.50;5087151;27;45453;-76
2022/03/28 11:11:55;;;;;;;;;22.50;19.50;;;;;23.30;38.77;101850.09;5088632;27;46431;-75
2022/03/28 11:14:38;;;;;;;;;21.67;18.33;;;;;23.30;38.39;101831.13;5084890;27;45424;-76
2022/03/28 11:17:17;;;;;;;;;22.00;19.50;;;;;23.30;38.37;101826.53;5085670;27;46056;-79
2022/03/28 11:19:51;;;;;;;;;22.33;20.33;;;;;23.32;38.22;101833.66;5087965;27;45934;-76
2022/03/28 11:22:17;;;;;;;;;23.33;21.00;;;;;23.29;38.00;101819.41;5080562;27;45584;-75
2022/03/28 11:24:58;;;;;;;;;30.25;25.75;;;;;23.32;37.36;101810.16;5088254;27;45440;-75
2022/03/28 11:27:29;;;;;;;;;22.25;21.75;;;;;23.36;37.37;101811.63;5082619;27;50452;-75
2022/03/28 11:30:10;;;;;;;;;26.00;21.25;;;;;23.38;37.58;101811.47;5086770;27;46426;-76
2022/03/28 11:32:37;;;;;;;;;21.75;18.25;;;;;23.38;37.90;101806.06;5089663;27;46195;-76
2022/03/28 11:35:03;;;;;;;;;22.00;22.00;;;;;23.35;37.79;101799.06;5084199;27;45588;-76
2022/03/28 11:37:29;;;;;;;;;22.00;19.75;;;;;23.38;37.52;101798.78;5089872;27;46147;-75
2022/03/28 11:40:04;;;;;;;;;24.00;18.00;;;;;23.41;37.86;101803.06;5093655;27;45296;-77
2022/03/28 11:42:35;;;;;;;;;24.33;22.33;;;;;23.37;37.60;101790.78;5092318;27;46219;-80
2022/03/28 11:45:07;;;;;;;;;20.25;19.75;;;;;23.45;37.64;101806.34;5092835;27;45509;-76
2022/03/28 11:47:35;;;;;;;;;19.50;18.25;;;;;23.45;37.91;101792.81;5087929;27;45547;-78
2022/03/28 11:50:04;;;;;;;;;21.33;18.33;;;;;23.46;37.86;101794.50;5097211;27;45987;-78
2022/03/28 11:52:30;;;;;;;;;21.67;20.00;;;;;23.45;38.22;101790.09;5093054;27;46560;-78
2022/03/28 11:54:56;;;;;;;;;18.00;17.67;;;;;23.49;37.77;101789.66;5091778;27;46858;-77
2022/03/28 12:00:23;;;;;;;;;19.33;18.00;;;;;23.46;38.30;101770.97;5088052;27;45564;-78
2022/03/28 12:02:51;;;;;;;;;20.75;19.25;;;;;23.50;37.79;101777.81;5090407;27;46211;-75
2022/03/28 12:05:34;;;;;;;;;19.67;17.33;;;;;23.49;37.82;101770.69;5091193;27;45468;-78
2022/03/28 12:08:06;;;;;;;;;21.33;17.33;;;;;23.37;38.47;101752.84;5092685;27;45489;-77
2022/03/28 12:10:36;;;;;;;;;20.00;18.67;;;;;23.49;38.48;101769.81;5094752;27;45557;-75
2022/03/28 12:13:05;;;;;;;;;21.67;18.33;;;;;23.50;37.93;101758.84;5089252;27;45996;-77
2022/03/28 12:15:32;;;;;;;;;20.33;17.00;;;;;23.52;38.63;101758.72;5089621;27;45812;-78
2022/03/28 12:18:00;;;;;;;;;20.00;17.00;;;;;23.54;38.23;101756.72;5088219;27;45556;-77
2022/03/28 12:20:31;;;;;;;;;19.33;17.33;;;;;23.58;38.07;101757.28;5081407;27;45410;-77
2022/03/28 12:22:58;;;;;;;;;18.67;16.67;;;;;23.60;38.41;101749.84;5089757;27;47195;-78
2022/03/28 12:25:27;;;;;;;;;18.00;17.33;;;;;23.62;38.21;101748.72;5109836;27;47405;-78
2022/03/28 12:27:55;;;;;;;;;15.33;14.00;;;;;23.62;38.19;101740.56;5087216;27;45564;-79
2022/03/28 12:30:28;;;;;;;;;18.00;16.00;;;;;23.67;38.27;101741.00;5088589;27;45574;-78
2022/03/28 12:32:54;;;;;;;;;16.00;16.00;;;;;23.65;38.29;101728.59;5090624;27;46247;-81
2022/03/28 12:35:21;;;;;;;;;16.75;14.25;;;;;23.70;38.19;101734.44;5084707;27;46011;-81
2022/03/28 12:37:56;;;;;;;;;19.33;16.00;;;;;23.72;37.83;101727.03;5094017;27;45470;-83
2022/03/28 12:40:26;;;;;;;;;19.67;17.00;;;;;23.70;37.83;101715.44;5095044;27;45390;-81
2022/03/28 12:42:52;;;;;;;;;17.67;16.00;;;;;23.73;38.06;101714.31;5093967;27;46280;-78
2022/03/28 12:45:17;;;;;;;;;14.67;14.67;;;;;23.70;38.16;101701.91;5093815;27;45496;-86
2022/03/28 12:47:53;;;;;;;;;14.67;13.67;;;;;23.76;37.88;101704.03;5092721;27;45450;-76
2022/03/28 12:50:19;;;;;;;;;14.67;14.67;;;;;23.77;38.24;101708.47;5086488;27;45455;-78
2022/03/28 12:52:44;;;;;;;;;18.33;16.00;;;;;23.77;38.28;101707.59;5092331;27;45805;-77
2022/03/28 12:55:09;;;;;;;;;17.00;15.67;;;;;23.76;37.90;101695.91;5086541;27;45633;-77
2022/03/28 12:57:37;;;;;;;;;20.00;15.33;;;;;23.77;37.97;101694.03;5083844;27;46443;-77
2022/03/28 13:00:03;;;;;;;;;5.25;5.25;;;;;23.84;37.92;101691.59;5084360;27;45674;-77
2022/03/28 13:02:28;;;;;;;;;20.00;16.00;;;;;23.85;38.15;101693.31;5084393;27;46196;-77
2022/03/28 13:04:56;;;;;;;;;20.33;16.00;;;;;23.85;37.97;101686.03;5086835;27;45372;-77
2022/03/28 13:07:23;;;;;;;;;18.00;17.33;;;;;23.86;37.52;101681.47;5085866;27;45495;-78
2022/03/28 13:10:08;;;;;;;;;20.33;17.67;;;;;23.82;37.42;101668.22;5080713;27;45500;-78
2022/03/28 13:12:42;;;;;;;;;20.75;16.25;;;;;23.87;37.20;101659.63;5090824;27;46402;-77
2022/03/28 13:15:20;;;;;;;;;13.00;13.00;;;;;23.86;37.59;101655.19;5089139;27;45509;-77
2022/03/28 13:17:48;;;;;;;;;18.33;16.00;;;;;23.87;37.66;101656.91;5089134;27;45403;-78
2022/03/28 13:20:25;;;;;;;;;22.00;16.67;;;;;23.84;37.64;101651.81;5089915;27;45522;-78
2022/03/28 13:22:51;;;;;;;;;15.67;14.00;;;;;23.87;37.67;101651.47;5091617;27;46185;-78
2022/03/28 13:25:20;;;;;;;;;15.67;14.33;;;;;23.84;37.67;101631.97;5094953;27;45668;-78
2022/03/28 13:28:02;;;;;;;;;19.00;17.33;;;;;23.90;37.58;101643.06;5092939;27;45465;-78
2022/03/28 13:30:29;;;;;;;;;16.00;15.33;;;;;23.90;37.62;101639.47;5092254;27;45658;-78
2022/03/28 13:32:56;;;;;;;;;9.67;9.33;;;;;23.89;37.40;101627.81;5092164;27;46161;-78
2022/03/28 13:35:22;;;;;;;;;14.67;14.67;;;;;23.93;37.46;101626.50;5090522;27;45401;-78
2022/03/28 13:38:02;;;;;;;;;18.67;16.67;;;;;23.95;37.60;101621.78;5093029;27;45319;-75
2022/03/28 13:40:28;;;;;;;;;13.33;13.33;;;;;23.97;37.36;101618.91;5095279;27;45424;-76
2022/03/28 13:42:55;;;;;;;;;19.00;14.67;;;;;23.96;37.72;101609.09;5104129;27;46616;-76
2022/03/28 13:45:23;;;;;;;;;15.67;14.33;;;;;23.99;37.71;101600.63;5088722;27;45582;-78
2022/03/28 13:47:50;;;;;;;;;18.00;15.33;;;;;23.98;37.99;101593.50;5089941;27;46301;-80
2022/03/28 13:50:16;;;;;;;;;14.00;13.67;;;;;23.99;37.49;101594.38;5088023;27;45571;-74
2022/03/28 13:52:41;;;;;;;;;12.00;11.00;;;;;24.04;36.98;101594.75;5092771;27;46327;-80
2022/03/28 13:55:06;;;;;;;;;17.67;13.00;;;;;23.97;36.85;101583.66;5086941;27;46019;-79
2022/03/28 13:57:32;;;;;;;;;20.00;18.33;;;;;23.97;36.81;101572.81;5089285;27;45543;-75
2022/03/28 13:59:58;;;;;;;;;18.33;17.00;;;;;23.89;37.12;101562.75;5088798;27;45592;-83
2022/03/28 14:02:23;;;;;;;;;16.33;15.33;;;;;23.91;36.76;101563.44;5092383;27;46246;-79
2022/03/28 14:04:49;;;;;;;;;20.00;18.33;;;;;23.91;36.55;101559.88;5089845;27;45451;-83
2022/03/28 14:07:14;;;;;;;;;19.00;16.00;;;;;23.95;36.70;101564.84;5090545;27;45501;-81
2022/03/28 14:09:39;;;;;;;;;18.00;16.33;;;;;23.94;36.61;101560.44;5093383;27;45438;-83
2022/03/28 14:12:05;;;;;;;;;18.00;17.00;;;;;23.91;37.39;101559.88;5081239;27;46197;-79
2022/03/28 14:14:31;;;;;;;;;16.50;14.50;;;;;23.94;36.95;101562.28;5089184;27;45822;-75
2022/03/28 14:16:57;;;;;;;;;17.33;16.67;;;;;23.95;37.25;101542.31;5092426;27;45429;-78
2022/03/28 14:19:23;;;;;;;;;17.33;16.00;;;;;23.98;37.15;101542.00;5090061;27;45541;-77
2022/03/28 14:21:51;;;;;;;;;16.67;15.00;;;;;24.01;37.32;101538.97;5080374;27;45710;-77
2022/03/28 14:24:17;;;;;;;;;16.33;14.00;;;;;24.02;37.44;101529.84;5084786;27;45509;-76
2022/03/28 14:26:42;;;;;;;;;13.00;12.33;;;;;24.10;37.43;101533.69;5095688;27;45500;-74
2022/03/28 14:29:08;;;;;;;;;16.33;13.33;;;;;24.12;37.64;101534.38;5089444;27;45471;-76
2022/03/28 14:31:34;;;;;;;;;11.67;11.67;;;;;24.14;37.31;101526.94;5094377;27;45452;-74
2022/03/28 14:33:59;;;;;;;;;14.33;13.00;;;;;24.23;37.51;101544.16;5100399;27;51045;-75
2022/03/28 14:36:25;;;;;;;;;16.33;15.33;;;;;24.23;37.72;101528.72;5092259;27;45485;-76
2022/03/28 14:38:51;;;;;;;;;13.67;13.00;;;;;24.31;37.85;101533.38;5092512;27;45277;-80
2022/03/28 14:41:17;;;;;;;;;12.67;12.67;;;;;24.31;37.62;101528.81;5090048;27;46745;-75
2022/03/28 14:43:42;;;;;;;;;13.33;12.00;;;;;24.33;37.64;101520.50;5086931;27;45872;-76
2022/03/28 14:48:51;;;;;;;;;13.00;12.33;;;;;24.42;37.74;101518.72;5091251;27;45411;-78
2022/03/28 14:51:19;;;;;;;;;11.33;11.00;;;;;24.44;37.83;101514.00;5090716;27;45836;-76
2022/03/28 14:53:45;;;;;;;;;11.67;10.33;;;;;24.45;37.91;101511.13;5092303;27;45568;-78
2022/03/28 14:56:11;;;;;;;;;14.00;13.67;;;;;24.48;37.73;101501.81;5080089;27;45564;-78
2022/03/28 14:58:37;;;;;;;;;12.33;11.00;;;;;24.51;38.08;101500.63;5089219;27;45470;-78
2022/03/28 15:01:02;;;;;;;;;16.33;14.00;;;;;24.47;38.16;101498.25;5074540;27;47116;-78
2022/03/28 15:03:28;;;;;;;;;15.33;14.33;;;;;24.53;38.03;101495.91;5091440;27;45396;-78
2022/03/28 15:05:53;;;;;;;;;11.33;11.33;;;;;24.53;38.36;101491.38;5091042;27;50427;-78
2022/03/28 15:08:18;;;;;;;;;12.00;12.00;;;;;24.56;38.14;101488.31;5092755;27;45383;-79
2022/03/28 15:10:44;;;;;;;;;12.00;11.67;;;;;24.54;38.11;101478.63;5090829;27;48401;-75
2022/03/28 15:13:10;;;;;;;;;11.00;10.00;;;;;24.59;38.47;101482.59;5093555;27;45441;-75
2022/03/28 15:15:35;;;;;;;;;11.33;11.33;;;;;24.60;38.24;101480.69;5083712;27;45505;-75
2022/03/28 15:18:02;;;;;;;;;10.67;10.00;;;;;24.57;38.19;101470.19;5086871;27;45469;-77
2022/03/28 15:20:27;;;;;;;;;14.00;10.00;;;;;24.60;38.43;101467.13;5088321;27;45573;-76
2022/03/28 15:22:53;;;;;;;;;11.67;11.67;;;;;24.65;38.36;101467.53;5080944;27;45750;-78
2022/03/28 15:25:18;;;;;;;;;11.33;11.33;;;;;24.59;38.66;101452.72;5096708;27;45820;-78
2022/03/28 15:27:44;;;;;;;;;9.67;9.67;;;;;24.61;38.55;101442.56;5095132;27;45490;-80
2022/03/28 15:30:11;;;;;;;;;12.67;10.67;;;;;24.69;38.41;101455.31;5091801;27;45728;-78
2022/03/28 15:32:36;;;;;;;;;11.00;9.33;;;;;24.69;38.65;101455.31;5094624;27;45509;-78
2022/03/28 15:35:02;;;;;;;;;10.33;10.33;;;;;24.74;38.53;101449.44;5095250;27;45403;-76
2022/03/28 15:37:29;;;;;;;;;12.67;11.67;;;;;24.74;38.68;101447.53;5097345;27;45795;-77
2022/03/28 15:39:55;;;;;;;;;13.33;13.33;;;;;24.76;38.44;101441.13;5092840;27;45581;-80
2022/03/28 15:42:21;;;;;;;;;19.00;17.33;;;;;24.76;38.46;101441.13;5091241;27;45302;-75
2022/03/28 15:44:46;;;;;;;;;17.00;13.67;;;;;24.67;39.21;101429.34;5093698;27;45516;-79
2022/03/28 15:47:12;;;;;;;;;16.00;13.33;;;;;24.61;39.39;101431.69;5094965;27;45618;-75
2022/03/28 15:49:37;;;;;;;;;16.33;13.33;;;;;24.54;40.29;101427.94;5092271;27;45885;-75
2022/03/28 15:52:03;;;;;;;;;12.67;11.67;;;;;24.52;39.66;101431.81;5083953;27;45432;-74
2022/03/28 15:54:28;;;;;;;;;14.67;14.00;;;;;24.44;39.62;101427.19;5085603;27;46444;-75
2022/03/28 15:56:54;;;;;;;;;15.00;13.00;;;;;24.37;39.02;101432.38;5085981;27;48863;-75
2022/03/28 15:59:19;;;;;;;;;22.67;16.00;;;;;24.28;39.34;101430.63;5085193;27;46305;-79
2022/03/28 16:01:51;;;;;;;;;16.00;11.67;;;;;24.25;38.76;101428.22;5094175;27;45271;-81
2022/03/28 16:04:18;;;;;;;;;13.00;11.00;;;;;24.20;38.67;101431.41;5092489;27;45410;-80
2022/03/28 16:06:48;;;;;;;;;15.00;13.00;;;;;24.16;39.00;101421.88;5085537;27;45452;-82
2022/03/28 16:09:19;;;;;;;;;16.00;13.00;;;;;24.13;38.39;101422.16;5085074;27;45676;-84
2022/03/28 16:11:45;;;;;;;;;14.67;13.00;;;;;24.06;38.74;101414.63;5090156;27;46413;-80
2022/03/28 16:14:13;;;;;;;;;10.00;10.00;;;;;24.07;38.54;101419.03;5089577;27;45377;-79
2022/03/28 16:16:40;;;;;;;;;12.00;10.67;;;;;24.05;38.64;101420.22;5084290;27;45880;-84
2022/03/28 16:19:09;;;;;;;;;11.33;11.33;;;;;24.04;38.43;101419.34;5093456;27;45905;-86
2022/03/28 16:21:35;;;;;;;;;17.33;14.00;;;;;24.01;38.57;101418.81;5085937;27;45419;-76
2022/03/28 16:24:01;;;;;;;;;13.00;11.00;;;;;24.05;38.63;101412.94;5091512;27;45590;-76
2022/03/28 16:26:26;;;;;;;;;16.00;11.00;;;;;24.03;38.78;101404.09;5092298;27;45441;-78
2022/03/28 16:28:52;;;;;;;;;13.67;12.67;;;;;24.10;38.82;101414.38;5092269;27;55368;-73
2022/03/28 16:31:19;;;;;;;;;13.67;10.67;;;;;24.12;38.76;101417.75;5089727;27;45400;-74
2022/03/28 16:33:45;;;;;;;;;11.00;11.00;;;;;24.13;39.18;101403.19;5081596;27;45437;-76
2022/03/28 16:36:13;;;;;;;;;15.33;12.33;;;;;24.12;39.15;101394.22;5092114;27;45435;-81
2022/03/28 16:38:39;;;;;;;;;12.67;12.67;;;;;24.13;38.88;101389.63;5084190;27;49661;-76
2022/03/28 16:41:04;;;;;;;;;10.33;10.33;;;;;24.18;38.76;101390.88;5087307;27;45629;-81
2022/03/28 16:43:29;;;;;;;;;12.67;12.00;;;;;24.18;39.08;101392.72;5091417;27;45446;-78
2022/03/28 16:45:55;;;;;;;;;12.00;10.00;;;;;24.17;39.15;101385.59;5094124;27;55403;-78
2022/03/28 16:48:20;;;;;;;;;11.33;8.33;;;;;24.17;38.99;101386.47;5089198;27;57914;-78
2022/03/28 16:50:49;;;;;;;;;10.00;8.67;;;;;24.15;39.06;101380.31;5089674;27;45639;-78
2022/03/28 16:53:14;;;;;;;;;13.00;9.00;;;;;24.07;38.90;101355.81;5092033;27;45472;-78
2022/03/28 16:55:40;;;;;;;;;11.33;10.67;;;;;24.14;39.03;101364.22;5092849;27;45955;-79
2022/03/28 16:58:05;;;;;;;;;8.67;7.00;;;;;24.11;39.01;101359.94;5088098;27;45473;-81
2022/03/28 17:00:31;;;;;;;;;8.33;6.00;;;;;24.07;38.63;101361.25;5089593;27;45453;-87
2022/03/28 17:02:56;;;;;;;;;9.67;8.67;;;;;24.11;38.76;101359.13;5089512;27;45923;-84
2022/03/28 17:05:22;;;;;;;;;11.00;11.00;;;;;24.06;38.62;101346.84;5088043;27;45569;-79
2022/03/28 17:07:47;;;;;;;;;10.33;10.33;;;;;24.12;38.72;101349.97;5108671;27;47412;-85
2022/03/28 17:10:13;;;;;;;;;11.00;9.33;;;;;24.12;38.80;101342.69;5087070;27;45400;-83
2022/03/28 17:12:39;;;;;;;;;10.00;9.67;;;;;24.14;38.81;101346.09;5090763;27;45474;-78
2022/03/28 17:15:07;;;;;;;;;12.67;9.00;;;;;24.18;38.77;101346.63;5088919;27;45949;-82
2022/03/28 17:17:32;;;;;;;;;11.67;9.67;;;;;24.16;39.11;101344.06;5107305;27;46152;-88
2022/03/28 17:19:58;;;;;;;;;14.00;11.00;;;;;24.17;38.49;101344.91;5091553;27;45370;-81
2022/03/28 17:22:24;;;;;;;;;11.00;11.00;;;;;24.20;38.24;101340.03;5085691;27;45634;-79
2022/03/28 17:24:50;;;;;;;;;11.00;10.67;;;;;24.17;37.84;101334.94;5089892;27;45504;-79
2022/03/28 17:27:15;;;;;;;;;9.67;9.67;;;;;24.17;37.68;101334.94;5090155;27;48474;-76
2022/03/28 17:29:40;;;;;;;;;10.00;8.67;;;;;24.17;37.49;101331.34;5090872;27;45436;-77
2022/03/28 17:32:06;;;;;;;;;9.33;8.00;;;;;24.11;37.39;101330.13;5089201;27;45450;-79
2022/03/28 17:34:32;;;;;;;;;10.33;9.00;;;;;24.14;38.25;101326.25;5094383;27;45399;-77
2022/03/28 17:36:57;;;;;;;;;9.67;9.67;;;;;24.14;38.13;101323.53;5089437;27;46415;-79
2022/03/28 17:39:23;;;;;;;;;12.33;9.33;;;;;24.14;38.46;101326.25;5087280;27;45409;-76
2022/03/28 17:41:53;;;;;;;;;10.00;10.00;;;;;24.12;38.51;101321.00;5091066;27;45678;-76
2022/03/28 17:44:20;;;;;;;;;8.33;8.33;;;;;24.18;38.19;101314.94;5087514;27;45565;-76
2022/03/28 17:46:46;;;;;;;;;8.67;8.33;;;;;24.21;38.48;101311.06;5093116;27;46566;-76
2022/03/28 17:49:13;;;;;;;;;10.67;9.00;;;;;24.16;38.62;101303.38;5080134;27;45462;-75
2022/03/28 17:51:39;;;;;;;;;6.33;5.67;;;;;24.23;38.43;101300.88;5084203;27;45481;-75
2022/03/28 17:54:08;;;;;;;;;8.00;8.00;;;;;24.22;38.46;101291.03;5087986;27;45435;-76
2022/03/28 17:56:36;;;;;;;;;12.00;9.00;;;;;24.26;38.66;101286.16;5079672;27;46320;-76
2022/03/28 17:59:03;;;;;;;;;9.00;8.00;;;;;24.24;38.43;101299.88;5076132;27;45690;-75
2022/03/28 18:01:29;;;;;;;;;8.67;8.67;;;;;24.24;38.55;101282.75;5093513;27;45394;-76
2022/03/28 18:03:54;;;;;;;;;8.33;8.33;;;;;24.28;37.31;101292.28;5090771;27;46468;-76
2022/03/28 18:06:20;;;;;;;;;15.00;10.00;;;;;24.25;37.40;101300.72;5084975;27;45612;-76
2022/03/28 18:08:47;;;;;;;;;15.33;11.33;;;;;24.23;37.03;101302.75;5077818;27;45441;-75
2022/03/28 18:11:13;;;;;;;;;13.33;9.67;;;;;24.20;37.45;101296.63;5081981;27;45365;-76
2022/03/28 18:13:38;;;;;;;;;15.67;12.33;;;;;24.18;37.01;101295.09;5086164;27;45388;-75
2022/03/28 18:16:04;;;;;;;;;11.00;11.00;;;;;24.11;37.19;101285.91;5080963;27;46088;-75
2022/03/28 18:18:29;;;;;;;;;16.67;12.67;;;;;24.12;37.07;101287.59;5090681;27;45594;-76
2022/03/28 18:20:54;;;;;;;;;11.67;11.67;;;;;24.10;36.94;101293.16;5085425;27;45559;-75